createdAt,value
2023-03-17T00:02:03.791Z,6.10
2023-03-17T00:04:37.267Z,5.40
2023-03-17T00:07:05.577Z,6.20
2023-03-17T00:09:35.776Z,5.50
2023-03-17T00:12:10.622Z,7.50
2023-03-17T00:14:41.802Z,4.70
2023-03-17T00:17:11.852Z,5.40
2023-03-17T00:19:42.921Z,3.90
2023-03-17T00:22:17.246Z,6.90
2023-03-17T00:24:45.523Z,4.00
2023-03-17T00:27:13.974Z,7.40
2023-03-17T00:29:43.965Z,8.00
2023-03-17T00:32:17.053Z,4.80
2023-03-17T00:34:45.590Z,3.90
2023-03-17T00:37:14.164Z,2.90
2023-03-17T00:39:42.223Z,3.60
2023-03-17T00:42:13.215Z,5.90
2023-03-17T00:44:41.726Z,4.50
2023-03-17T00:47:11.157Z,5.80
2023-03-17T00:49:41.318Z,7.50
2023-03-17T00:52:15.583Z,4.10
2023-03-17T00:54:43.776Z,4.70
2023-03-17T00:57:12.859Z,4.60
2023-03-17T00:59:42.876Z,5.60
2023-03-17T01:02:13.363Z,6.30
2023-03-17T01:04:45.568Z,3.90
2023-03-17T01:07:15.932Z,7.30
2023-03-17T01:09:45.365Z,4.00
2023-03-17T01:12:14.310Z,6.90
2023-03-17T01:14:43.791Z,3.70
2023-03-17T01:17:15.341Z,6.50
2023-03-17T01:19:46.449Z,3.90
2023-03-17T01:22:15.467Z,5.00
2023-03-17T01:24:43.847Z,6.10
2023-03-17T01:27:12.810Z,5.70
2023-03-17T01:29:41.783Z,7.00
2023-03-17T01:32:10.846Z,3.40
2023-03-17T01:34:39.952Z,6.30
2023-03-17T01:37:09.829Z,9.10
2023-03-17T01:39:38.293Z,7.00
2023-03-17T01:42:26.183Z,4.90
2023-03-17T01:45:02.921Z,6.50
2023-03-17T01:47:32.219Z,6.70
2023-03-17T01:50:07.637Z,4.50
2023-03-17T01:52:38.727Z,6.20
2023-03-17T01:55:14.796Z,5.50
2023-03-17T01:57:51.285Z,3.60
2023-03-17T02:00:21.259Z,5.40
2023-03-17T02:02:52.423Z,8.60
2023-03-17T02:05:23.109Z,6.40
2023-03-17T02:10:20.681Z,5.60
2023-03-17T02:12:52.277Z,6.60
2023-03-17T02:15:20.594Z,4.60
2023-03-17T02:17:51.027Z,3.10
2023-03-17T02:20:20.022Z,4.90
2023-03-17T02:22:55.759Z,4.10
2023-03-17T02:25:23.950Z,7.40
2023-03-17T02:27:54.888Z,6.00
2023-03-17T02:30:24.677Z,3.60
2023-03-17T02:32:53.263Z,6.30
2023-03-17T02:35:23.516Z,3.80
2023-03-17T02:37:52.068Z,5.00
2023-03-17T02:42:51.465Z,2.80
2023-03-17T02:45:19.613Z,4.00
2023-03-17T02:47:48.253Z,2.30
2023-03-17T02:50:23.167Z,3.50
2023-03-17T02:52:51.451Z,4.90
2023-03-17T02:55:20.496Z,5.40
2023-03-17T02:57:48.938Z,4.20
2023-03-17T03:00:21.661Z,5.20
2023-03-17T03:02:50.073Z,3.60
2023-03-17T03:05:21.349Z,9.70
2023-03-17T03:07:51.630Z,3.30
2023-03-17T03:10:19.716Z,2.90
2023-03-17T03:12:53.356Z,4.40
2023-03-17T03:15:21.671Z,5.20
2023-03-17T03:17:51.092Z,6.00
2023-03-17T03:20:21.934Z,6.80
2023-03-17T03:22:50.764Z,6.10
2023-03-17T03:25:19.060Z,5.90
2023-03-17T03:27:47.632Z,4.80
2023-03-17T03:30:15.947Z,4.80
2023-03-17T03:32:46.815Z,6.60
2023-03-17T03:35:15.002Z,3.70
2023-03-17T03:37:44.114Z,2.90
2023-03-17T03:40:13.564Z,5.50
2023-03-17T03:42:42.292Z,2.60
2023-03-17T03:45:10.788Z,3.60
2023-03-17T03:47:38.848Z,2.60
2023-03-17T03:50:10.681Z,3.80
2023-03-17T03:52:39.704Z,3.50
2023-03-17T03:55:08.191Z,3.80
2023-03-17T03:57:36.617Z,4.90
2023-03-17T04:00:05.294Z,4.30
2023-03-17T04:02:46.788Z,5.30
2023-03-17T04:05:17.373Z,6.10
2023-03-17T04:07:48.028Z,3.80
2023-03-17T04:10:16.665Z,3.20
2023-03-17T04:12:46.007Z,3.60
2023-03-17T04:15:18.409Z,5.70
2023-03-17T04:17:48.701Z,4.40
2023-03-17T04:20:17.835Z,4.60
2023-03-17T04:22:49.400Z,5.30
2023-03-17T04:25:18.105Z,3.30
2023-03-17T04:27:46.332Z,6.60
2023-03-17T04:30:14.785Z,7.50
2023-03-17T04:32:43.277Z,7.10
2023-03-17T04:35:18.890Z,5.50
2023-03-17T04:37:48.619Z,5.60
2023-03-17T04:42:46.452Z,9.00
2023-03-17T04:45:17.485Z,9.80
2023-03-17T04:47:48.647Z,6.30
2023-03-17T04:50:20.072Z,4.50
2023-03-17T04:52:52.098Z,6.40
2023-03-17T04:55:21.342Z,10.00
2023-03-17T04:57:49.692Z,4.40
2023-03-17T05:00:18.606Z,8.20
2023-03-17T05:02:46.898Z,7.20
2023-03-17T05:05:19.072Z,6.40
2023-03-17T05:07:47.805Z,5.00
2023-03-17T05:10:15.980Z,4.10
2023-03-17T05:12:46.332Z,7.10
2023-03-17T05:15:15.365Z,9.60
2023-03-17T05:17:43.524Z,7.60
2023-03-17T05:20:12.682Z,9.20
2023-03-17T05:22:41.859Z,7.80
2023-03-17T05:25:10.639Z,7.20
2023-03-17T05:27:40.104Z,6.60
2023-03-17T05:30:09.395Z,6.70
2023-03-17T05:32:37.838Z,5.80
2023-03-17T05:35:07.535Z,8.80
2023-03-17T05:37:38.170Z,8.50
2023-03-17T05:40:08.442Z,10.10
2023-03-17T05:42:36.740Z,7.90
2023-03-17T05:45:05.893Z,6.80
2023-03-17T05:47:36.564Z,4.80
2023-03-17T05:50:05.929Z,5.70
2023-03-17T05:52:34.164Z,9.90
2023-03-17T05:55:04.739Z,10.10
2023-03-17T05:57:33.279Z,13.00
2023-03-17T06:00:01.572Z,10.80
2023-03-17T06:02:35.551Z,9.40
2023-03-17T06:05:03.909Z,7.50
2023-03-17T06:07:44.641Z,7.30
2023-03-17T06:10:18.449Z,6.40
2023-03-17T06:12:46.619Z,7.90
2023-03-17T06:15:16.726Z,6.50
2023-03-17T06:20:16.896Z,9.30
2023-03-17T06:23:02.327Z,7.90
2023-03-17T06:25:31.755Z,9.40
2023-03-17T06:28:03.996Z,7.90
2023-03-17T06:30:33.328Z,9.70
2023-03-17T06:33:07.168Z,7.10
2023-03-17T06:35:36.250Z,7.00
2023-03-17T06:38:05.158Z,6.30
2023-03-17T06:40:34.448Z,5.90
2023-03-17T06:43:03.341Z,7.80
2023-03-17T06:45:37.602Z,7.70
2023-03-17T06:48:07.116Z,6.80
2023-03-17T06:50:35.313Z,6.70
2023-03-17T06:55:34.680Z,9.30
2023-03-17T06:58:06.461Z,12.20
2023-03-17T07:00:38.520Z,9.40
2023-03-17T07:03:06.631Z,5.80
2023-03-17T07:05:35.750Z,6.10
2023-03-17T07:08:04.026Z,6.50
2023-03-17T07:10:33.369Z,8.00
2023-03-17T07:13:07.810Z,8.20
2023-03-17T07:15:37.360Z,7.00
2023-03-17T07:18:07.142Z,7.30
2023-03-17T07:20:36.330Z,6.10
2023-03-17T07:23:04.506Z,6.60
2023-03-17T07:25:36.989Z,8.40
2023-03-17T07:28:05.718Z,8.90
2023-03-17T07:30:35.817Z,12.70
2023-03-17T07:33:04.514Z,9.60
2023-03-17T07:35:34.309Z,9.70
2023-03-17T07:40:34.289Z,8.70
2023-03-17T07:43:04.834Z,8.90
2023-03-17T07:45:35.373Z,9.30
2023-03-17T07:48:05.223Z,8.20
2023-03-17T07:50:37.896Z,7.40
2023-03-17T07:53:06.347Z,7.40
2023-03-17T07:55:37.054Z,6.10
2023-03-17T07:58:06.097Z,8.50
2023-03-17T08:00:34.795Z,7.40
2023-03-17T08:03:10.402Z,7.90
2023-03-17T08:05:39.734Z,11.30
2023-03-17T08:08:12.818Z,10.60
2023-03-17T08:10:42.593Z,9.30
2023-03-17T08:13:10.826Z,7.60
2023-03-17T08:15:41.755Z,9.00
2023-03-17T08:18:10.603Z,9.00
2023-03-17T08:20:39.247Z,9.30
2023-03-17T08:23:09.344Z,8.20
2023-03-17T08:25:37.535Z,12.40
2023-03-17T08:28:05.740Z,13.20
2023-03-17T08:30:35.115Z,9.20
2023-03-17T08:33:04.532Z,8.40
2023-03-17T08:35:34.554Z,7.80
2023-03-17T08:38:04.092Z,10.30
2023-03-17T08:40:32.631Z,8.50
2023-03-17T08:43:01.513Z,8.20
2023-03-17T08:45:29.941Z,11.20
2023-03-17T08:48:02.046Z,10.10
2023-03-17T08:50:31.198Z,11.70
2023-03-17T08:52:59.427Z,5.90
2023-03-17T08:55:30.793Z,8.20
2023-03-17T08:57:59.051Z,8.50
2023-03-17T09:00:27.233Z,13.90
2023-03-17T09:02:56.955Z,11.30
2023-03-17T09:05:25.295Z,9.50
2023-03-17T09:07:53.644Z,11.20
2023-03-17T09:10:23.864Z,10.90
2023-03-17T09:13:05.725Z,9.60
2023-03-17T09:15:34.523Z,13.20
2023-03-17T09:18:03.425Z,13.80
2023-03-17T09:20:31.826Z,9.30
2023-03-17T09:23:00.849Z,10.40
2023-03-17T09:25:29.474Z,14.70
2023-03-17T09:27:58.831Z,11.90
2023-03-17T09:30:27.072Z,11.40
2023-03-17T09:32:55.303Z,14.50
2023-03-17T09:35:23.781Z,12.60
2023-03-17T09:37:52.254Z,9.00
2023-03-17T09:40:22.295Z,9.10
2023-03-17T09:42:58.248Z,17.40
2023-03-17T09:45:42.981Z,13.60
2023-03-17T09:48:14.655Z,7.90
2023-03-17T09:50:54.105Z,6.90
2023-03-17T09:53:34.241Z,6.30
2023-03-17T09:56:07.264Z,8.20
2023-03-17T09:58:38.501Z,6.00
2023-03-17T10:01:09.111Z,13.20
2023-03-17T13:43:24.557Z,15.20
2023-03-17T13:45:52.824Z,16.60
2023-03-17T13:48:36.493Z,11.10
2023-03-17T13:51:21.164Z,16.80
2023-03-17T13:53:57.548Z,9.90
2023-03-17T13:56:27.819Z,14.20
2023-03-17T13:59:02.410Z,11.80
2023-03-17T14:01:39.170Z,12.60
2023-03-17T14:04:13.147Z,14.90
2023-03-17T14:06:42.315Z,23.00
2023-03-17T14:09:38.184Z,12.00
2023-03-17T14:12:18.332Z,11.70
2023-03-17T14:15:11.231Z,13.60
2023-03-17T14:17:57.691Z,18.10
2023-03-17T14:20:30.338Z,13.80
2023-03-17T14:23:03.143Z,12.00
2023-03-17T14:25:36.226Z,18.30
2023-03-17T14:28:06.156Z,17.50
2023-03-17T14:30:35.237Z,21.10
2023-03-17T14:33:21.698Z,19.70
2023-03-17T14:35:51.268Z,13.50
2023-03-17T14:38:29.102Z,12.60
2023-03-17T14:41:16.896Z,11.70
2023-03-17T14:43:49.033Z,11.80
2023-03-17T14:46:25.835Z,13.30
2023-03-17T14:49:02.503Z,15.00
2023-03-17T14:51:38.045Z,11.40
2023-03-17T14:54:31.340Z,12.60
2023-03-17T14:57:03.434Z,13.10
2023-03-17T14:59:40.681Z,15.40
2023-03-17T15:02:21.612Z,14.90
2023-03-17T15:04:54.297Z,18.50
2023-03-17T15:07:30.284Z,19.30
2023-03-17T15:10:02.019Z,19.70
2023-03-17T15:12:30.649Z,17.80
2023-03-17T15:15:02.217Z,15.60
2023-03-17T15:17:35.134Z,15.90
2023-03-17T15:20:06.865Z,15.90
2023-03-17T15:22:34.936Z,19.30
2023-03-17T15:25:22.230Z,27.40
2023-03-17T15:27:50.816Z,21.60
2023-03-17T15:30:19.518Z,17.70
2023-03-17T15:33:03.370Z,18.40
2023-03-17T15:35:31.718Z,21.10
2023-03-17T15:38:00.081Z,15.70
2023-03-17T15:40:28.601Z,12.60
2023-03-17T15:43:00.731Z,14.60
2023-03-17T15:47:57.379Z,33.70
2023-03-17T15:50:28.879Z,28.90
2023-03-17T15:52:58.638Z,37.00
2023-03-17T15:55:31.875Z,28.00
2023-03-17T15:58:00.434Z,24.00
2023-03-17T16:00:34.891Z,16.90
2023-03-17T16:06:15.698Z,26.70
2023-03-17T16:08:44.190Z,24.60
2023-03-17T16:11:17.903Z,23.70
2023-03-17T16:13:47.554Z,20.10
2023-03-17T16:16:30.314Z,19.20
2023-03-17T16:18:59.076Z,26.20
2023-03-17T16:21:27.585Z,23.00
2023-03-17T16:23:55.999Z,18.70
2023-03-17T16:26:24.556Z,15.70
2023-03-17T16:28:54.108Z,18.90
2023-03-17T16:31:23.350Z,16.50
2023-03-17T16:33:52.941Z,14.70
2023-03-17T16:36:21.910Z,12.80
2023-03-17T16:38:50.343Z,11.00
2023-03-17T16:41:22.390Z,17.30
2023-03-17T16:46:21.239Z,13.60
2023-03-17T16:48:51.217Z,12.30
2023-03-17T16:51:19.602Z,14.30
2023-03-17T16:53:47.976Z,22.20
2023-03-17T16:56:21.664Z,16.30
2023-03-17T16:58:52.015Z,20.50
2023-03-17T17:01:22.130Z,11.80
2023-03-17T17:03:50.430Z,15.30
2023-03-17T17:06:19.691Z,12.30
2023-03-17T17:08:48.369Z,9.40
2023-03-17T17:11:17.228Z,9.30
2023-03-17T17:13:47.838Z,12.30
2023-03-17T17:16:30.297Z,10.30
2023-03-17T17:18:59.305Z,20.20
2023-03-17T17:21:28.543Z,15.20
2023-03-17T17:23:56.942Z,16.30
2023-03-17T17:26:27.651Z,14.70
2023-03-17T17:28:55.827Z,14.50
2023-03-17T17:31:25.093Z,16.10
2023-03-17T17:33:54.739Z,22.60
2023-03-17T17:36:22.953Z,13.40
2023-03-17T17:38:52.214Z,13.00
2023-03-17T17:41:23.768Z,13.50
2023-03-17T17:43:53.856Z,15.20
2023-03-17T17:46:24.295Z,12.00
2023-03-17T17:48:52.607Z,14.30
2023-03-17T17:51:21.096Z,12.20
2023-03-17T17:53:49.278Z,21.50
2023-03-17T17:56:17.870Z,12.50
2023-03-17T17:58:50.131Z,15.50
2023-03-17T18:01:22.083Z,12.90
2023-03-17T18:03:54.800Z,15.20
2023-03-17T18:06:23.054Z,15.10
2023-03-17T18:08:51.287Z,11.90
2023-03-17T18:11:22.908Z,14.80
2023-03-17T18:13:51.472Z,14.40
2023-03-17T18:16:19.722Z,12.50
2023-03-17T18:18:52.150Z,11.40
2023-03-17T18:21:21.567Z,10.90
2023-03-17T18:23:50.165Z,11.50
2023-03-17T18:26:18.487Z,10.70
2023-03-17T18:28:48.191Z,13.00
2023-03-17T18:31:34.137Z,12.90
2023-03-17T18:34:06.555Z,14.70
2023-03-17T18:36:35.826Z,8.80
2023-03-17T18:39:05.162Z,10.40
2023-03-17T18:41:36.634Z,13.10
2023-03-17T18:44:04.996Z,13.90
2023-03-17T18:46:33.847Z,12.40
2023-03-17T18:49:02.123Z,13.20
2023-03-17T18:51:32.118Z,12.60
2023-03-17T18:54:00.332Z,19.80
2023-03-17T18:56:29.881Z,12.40
2023-03-17T18:58:58.455Z,12.00
2023-03-17T19:01:30.302Z,10.70
2023-03-17T19:03:58.595Z,14.80
2023-03-17T19:06:26.898Z,14.60
2023-03-17T19:08:54.958Z,12.70
2023-03-17T19:11:23.125Z,13.60
2023-03-17T19:13:52.576Z,11.80
2023-03-17T19:16:29.127Z,15.30
2023-03-17T19:18:58.191Z,9.60
2023-03-17T19:21:26.373Z,17.40
2023-03-17T19:23:58.501Z,15.30
2023-03-17T19:26:31.340Z,12.60
2023-03-17T19:29:09.860Z,18.40
2023-03-17T19:31:41.758Z,11.60
2023-03-17T19:34:12.479Z,11.80
2023-03-17T19:36:41.820Z,12.80
2023-03-17T19:39:13.865Z,17.00
2023-03-17T19:41:42.934Z,9.60
2023-03-17T19:44:11.703Z,9.60
2023-03-17T19:46:39.883Z,10.30
2023-03-17T19:49:08.005Z,12.10
2023-03-17T19:51:36.915Z,13.80
2023-03-17T19:54:13.979Z,16.10
2023-03-17T19:56:42.634Z,13.70
2023-03-17T19:59:19.231Z,18.60
2023-03-17T20:01:48.905Z,34.00
2023-03-17T20:04:23.973Z,48.00
2023-03-17T20:06:55.629Z,49.00
2023-03-17T20:09:26.275Z,25.80
2023-03-17T20:11:54.509Z,22.20
2023-03-17T20:14:23.799Z,18.20
2023-03-17T20:16:53.540Z,20.60
2023-03-17T20:19:22.071Z,17.40
2023-03-17T20:21:50.508Z,16.80
2023-03-17T20:24:19.210Z,14.80
2023-03-17T20:26:51.828Z,13.20
2023-03-17T20:29:20.012Z,13.70
2023-03-17T20:31:48.617Z,13.00
2023-03-17T20:34:18.217Z,13.80
2023-03-17T20:36:46.955Z,16.80
2023-03-17T20:39:20.033Z,15.00
2023-03-17T20:41:51.881Z,17.50
2023-03-17T20:44:21.457Z,23.70
2023-03-17T20:49:19.719Z,22.80
2023-03-17T20:51:54.497Z,26.00
2023-03-17T20:54:25.882Z,23.40
2023-03-17T20:56:55.981Z,22.20
2023-03-17T21:01:53.475Z,23.70
2023-03-17T21:04:31.365Z,19.10
2023-03-17T21:06:59.825Z,19.40
2023-03-17T21:09:28.516Z,18.90
2023-03-17T21:14:29.889Z,18.50
2023-03-17T21:16:57.927Z,18.60
2023-03-17T21:19:26.245Z,21.90
2023-03-17T21:21:54.732Z,19.30
2023-03-17T21:24:33.687Z,21.20
2023-03-17T21:27:05.262Z,21.90
2023-03-17T21:29:33.948Z,27.80
2023-03-17T21:32:07.523Z,33.20
2023-03-17T21:34:36.079Z,35.70
2023-03-17T21:37:04.454Z,36.50
2023-03-17T21:39:36.745Z,39.70
2023-03-17T21:42:05.423Z,48.30
2023-03-17T21:44:37.380Z,65.00
2023-03-17T21:47:07.792Z,82.80
2023-03-17T21:49:36.156Z,87.00
2023-03-17T21:52:04.745Z,99.80
2023-03-17T21:57:05.692Z,75.20
2023-03-17T21:59:37.126Z,48.10
2023-03-17T22:02:05.508Z,51.30
2023-03-17T22:04:36.374Z,42.80
2023-03-17T22:07:04.886Z,33.50
2023-03-17T22:09:37.754Z,31.50
2023-03-17T22:12:08.113Z,25.10
2023-03-17T22:14:36.686Z,23.30
2023-03-17T22:17:06.498Z,25.70
2023-03-17T22:19:35.503Z,21.70
2023-03-17T22:22:06.958Z,22.60
2023-03-17T22:24:35.428Z,16.50
2023-03-17T22:27:05.039Z,19.10
2023-03-17T22:29:37.015Z,20.00
2023-03-17T22:32:06.648Z,22.20
2023-03-17T22:34:35.117Z,19.60
2023-03-17T22:37:04.249Z,16.70
2023-03-17T22:39:34.785Z,20.30
2023-03-17T22:42:03.116Z,20.50
2023-03-17T22:44:31.961Z,20.20
2023-03-17T22:47:00.487Z,19.40
2023-03-17T22:49:29.902Z,20.00
2023-03-17T22:51:58.933Z,20.40
2023-03-17T22:54:27.168Z,20.00
2023-03-17T22:56:56.584Z,19.10
2023-03-17T22:59:24.638Z,19.40
2023-03-17T23:01:52.821Z,20.40
2023-03-17T23:04:20.896Z,21.40
2023-03-17T23:06:49.040Z,22.60
2023-03-17T23:09:17.341Z,19.80
2023-03-17T23:11:47.479Z,21.40
2023-03-17T23:14:17.182Z,21.30
2023-03-17T23:16:45.697Z,20.90
2023-03-17T23:19:20.503Z,22.10
2023-03-17T23:21:48.631Z,20.10
2023-03-17T23:24:17.463Z,25.90
2023-03-17T23:26:46.535Z,33.20
2023-03-17T23:29:16.085Z,43.90
2023-03-17T23:34:14.375Z,21.00
2023-03-17T23:36:42.847Z,19.00
2023-03-17T23:39:11.776Z,27.40
2023-03-17T23:41:40.321Z,29.40
2023-03-17T23:44:09.426Z,27.30
2023-03-17T23:49:08.361Z,26.30
2023-03-17T23:51:36.916Z,21.80
2023-03-17T23:54:07.757Z,25.40
2023-03-17T23:56:37.323Z,25.60
2023-03-17T23:59:07.630Z,20.60
